Time;durP1;ratioP1;P1;durP2;ratioP2;P2;SDS_P1;SDS_P2;PMS_P1;PMS_P2;Temp;Humidity;BMP_temperature;BMP_pressure;BME280_temperature;BME280_humidity;BME280_pressure;Samples;Min_cycle;Max_cycle;Signal;HPM_P1;HPM_P2
2021/01/08 00:01:26;;;;;;;14.07;8.07;;;1.20;99.90;;;;;;5022736;28;20192;-88
2021/01/08 00:03:52;;;;;;;17.30;9.40;;;1.20;99.90;;;;;;5028420;28;20204;-87
2021/01/08 00:06:19;;;;;;;13.90;7.30;;;1.10;99.90;;;;;;5014452;28;20200;-87
2021/01/08 00:08:44;;;;;;;15.07;8.67;;;1.10;99.90;;;;;;5015349;28;20306;-89
2021/01/08 00:11:10;;;;;;;18.47;8.90;;;1.10;99.90;;;;;;5029058;28;20776;-88
2021/01/08 00:13:36;;;;;;;13.57;6.93;;;1.10;99.90;;;;;;5027046;28;20299;-86
2021/01/08 00:16:02;;;;;;;13.90;7.53;;;1.10;99.90;;;;;;5024461;28;20212;-89
2021/01/08 00:18:27;;;;;;;11.17;6.80;;;1.10;99.90;;;;;;5008367;28;20192;-88
2021/01/08 00:20:53;;;;;;;14.60;8.20;;;1.20;99.90;;;;;;5007720;28;21110;-88
2021/01/08 00:23:19;;;;;;;15.67;8.77;;;1.30;99.90;;;;;;5022924;28;20250;-86
2021/01/08 00:25:50;;;;;;;19.43;9.77;;;1.30;99.90;;;;;;5025121;28;20286;-85
2021/01/08 00:28:16;;;;;;;15.17;8.10;;;1.50;99.90;;;;;;5023197;28;20194;-87
2021/01/08 00:30:42;;;;;;;12.17;6.67;;;1.50;99.90;;;;;;5022406;28;20435;-88
2021/01/08 00:33:07;;;;;;;15.40;7.10;;;1.60;99.90;;;;;;5021811;28;20200;-86
2021/01/08 00:35:36;;;;;;;11.70;7.27;;;1.60;99.90;;;;;;5023828;28;20589;-85
2021/01/08 00:38:03;;;;;;;13.90;7.50;;;1.70;99.90;;;;;;5007338;28;20183;-84
2021/01/08 00:40:28;;;;;;;17.07;7.80;;;1.70;99.90;;;;;;5006799;28;20443;-86
2021/01/08 00:42:54;;;;;;;13.77;7.23;;;1.70;99.90;;;;;;5009628;28;20469;-87
2021/01/08 00:45:20;;;;;;;12.33;6.23;;;1.80;99.90;;;;;;5004806;28;20203;-86
2021/01/08 00:47:46;;;;;;;10.90;6.57;;;1.80;99.90;;;;;;5025204;28;20201;-84
2021/01/08 00:50:12;;;;;;;15.13;7.27;;;1.80;99.90;;;;;;4989819;28;20455;-83
2021/01/08 00:52:37;;;;;;;12.27;7.30;;;1.90;99.90;;;;;;5024910;28;20216;-87
2021/01/08 00:55:04;;;;;;;11.43;7.23;;;1.90;99.90;;;;;;5024143;28;20467;-86
2021/01/08 00:57:29;;;;;;;12.63;7.77;;;1.90;99.90;;;;;;5024427;28;20188;-84
2021/01/08 00:59:55;;;;;;;11.57;7.57;;;2.00;99.90;;;;;;5022732;28;20431;-88
2021/01/08 01:02:20;;;;;;;17.80;8.53;;;2.00;99.90;;;;;;5024344;28;21737;-88
2021/01/08 01:04:46;;;;;;;11.53;7.33;;;2.00;99.90;;;;;;5008374;28;20664;-86
2021/01/08 01:07:12;;;;;;;13.80;7.73;;;1.90;99.90;;;;;;5022910;28;20196;-85
2021/01/08 01:09:38;;;;;;;9.10;6.60;;;1.90;99.90;;;;;;5010499;28;20284;-86
2021/01/08 01:12:04;;;;;;;17.30;8.97;;;2.00;99.90;;;;;;5005848;28;20616;-85
2021/01/08 01:14:29;;;;;;;13.40;8.20;;;2.00;99.90;;;;;;5026262;28;20471;-88
2021/01/08 01:16:55;;;;;;;12.30;6.97;;;1.90;99.90;;;;;;5023959;28;20438;-86
2021/01/08 01:19:21;;;;;;;13.23;7.53;;;2.00;99.90;;;;;;5013351;28;20200;-86
2021/01/08 01:21:46;;;;;;;16.33;8.03;;;2.00;99.90;;;;;;5010388;28;20202;-85
2021/01/08 01:24:15;;;;;;;11.13;7.60;;;2.00;99.90;;;;;;5009370;28;20235;-87
2021/01/08 01:26:40;;;;;;;15.90;8.03;;;2.00;99.90;;;;;;5027939;28;20195;-86
2021/01/08 01:29:06;;;;;;;16.63;8.07;;;2.00;99.90;;;;;;5027436;28;20439;-87
2021/01/08 01:31:31;;;;;;;14.90;8.00;;;1.90;99.90;;;;;;5012176;28;20251;-86
2021/01/08 01:33:58;;;;;;;17.80;8.67;;;1.90;99.90;;;;;;5008633;28;20312;-85
2021/01/08 01:36:24;;;;;;;12.90;7.63;;;1.90;99.90;;;;;;5022724;28;20233;-83
2021/01/08 01:38:50;;;;;;;15.40;9.40;;;1.90;99.90;;;;;;5007652;28;20442;-86
2021/01/08 01:41:15;;;;;;;11.50;7.43;;;1.90;99.90;;;;;;5026827;28;20189;-86
2021/01/08 01:43:41;;;;;;;15.67;8.13;;;2.00;99.90;;;;;;5008217;28;20296;-86
2021/01/08 01:46:07;;;;;;;15.10;7.63;;;1.90;99.90;;;;;;5026919;28;20201;-87
2021/01/08 01:48:32;;;;;;;14.63;8.30;;;1.90;99.90;;;;;;5011488;28;20192;-85
2021/01/08 01:50:58;;;;;;;11.90;6.77;;;1.90;99.90;;;;;;5009952;28;21019;-87
2021/01/08 01:53:24;;;;;;;14.50;10.33;;;1.90;99.90;;;;;;5025876;28;20286;-88
2021/01/08 01:55:51;;;;;;;22.77;9.57;;;1.90;99.90;;;;;;5023831;28;20202;-88
2021/01/08 01:58:18;;;;;;;15.33;9.47;;;1.90;99.90;;;;;;5023113;28;20439;-87
2021/01/08 02:00:44;;;;;;;17.60;10.20;;;1.80;99.90;;;;;;5022451;28;20920;-87
2021/01/08 02:03:23;;;;;;;20.20;10.97;;;1.80;99.90;;;;;;5025918;28;20553;-88
2021/01/08 02:05:50;;;;;;;21.73;9.50;;;1.90;99.90;;;;;;4990675;28;20557;-89
2021/01/08 02:08:24;;;;;;;19.00;9.57;;;1.90;99.90;;;;;;5008419;28;20475;-86
2021/01/08 02:10:56;;;;;;;16.10;8.17;;;1.90;99.90;;;;;;5027914;28;20473;-86
2021/01/08 02:13:45;;;;;;;17.23;9.20;;;1.90;99.90;;;;;;5023204;28;20490;-88
2021/01/08 02:16:16;;;;;;;17.70;8.67;;;1.90;99.90;;;;;;5008229;28;20433;-88
2021/01/08 02:18:43;;;;;;;20.83;10.43;;;1.90;99.90;;;;;;5006171;28;21033;-89
2021/01/08 02:21:24;;;;;;;18.80;10.10;;;1.90;99.90;;;;;;5023439;28;20490;-85
2021/01/08 02:24:15;;;;;;;17.90;9.97;;;1.90;99.90;;;;;;5024566;28;20438;-88
2021/01/08 02:26:42;;;;;;;16.80;9.30;;;1.90;99.90;;;;;;5018569;28;21681;-86
2021/01/08 02:29:09;;;;;;;18.40;10.40;;;1.90;99.90;;;;;;5008586;28;20454;-87
2021/01/08 02:31:36;;;;;;;20.77;11.90;;;1.90;99.90;;;;;;5023288;28;20536;-87
2021/01/08 02:34:02;;;;;;;19.77;11.77;;;1.90;99.90;;;;;;5008154;28;20966;-86
2021/01/08 02:36:29;;;;;;;16.97;10.30;;;2.00;99.90;;;;;;5023509;28;20509;-86
2021/01/08 02:38:55;;;;;;;23.37;11.43;;;1.90;99.90;;;;;;5027470;28;20443;-86
2021/01/08 02:41:23;;;;;;;18.40;10.00;;;1.80;99.90;;;;;;5025528;28;20942;-84
2021/01/08 02:43:50;;;;;;;16.10;9.30;;;1.80;99.90;;;;;;5009380;28;20472;-85
2021/01/08 02:46:16;;;;;;;31.73;12.40;;;1.80;99.90;;;;;;5023678;28;20441;-86
2021/01/08 02:48:41;;;;;;;22.23;11.53;;;1.80;99.90;;;;;;5022063;28;20451;-87
2021/01/08 02:51:07;;;;;;;22.67;11.90;;;1.80;99.90;;;;;;5007121;28;20203;-84
2021/01/08 02:53:35;;;;;;;19.63;10.20;;;1.80;99.90;;;;;;4999620;28;20231;-87
2021/01/08 02:56:26;;;;;;;17.87;10.27;;;1.70;99.90;;;;;;5005352;28;20567;-85
2021/01/08 02:58:53;;;;;;;14.80;8.37;;;1.80;99.90;;;;;;5020679;28;20425;-85
2021/01/08 03:01:20;;;;;;;17.37;9.57;;;1.70;99.90;;;;;;5004786;28;20429;-87
2021/01/08 03:03:46;;;;;;;16.77;9.77;;;1.70;99.90;;;;;;5021493;28;20462;-86
2021/01/08 03:06:11;;;;;;;12.03;7.43;;;1.70;99.90;;;;;;5021889;28;20441;-86
2021/01/08 03:08:38;;;;;;;16.83;9.63;;;1.80;99.90;;;;;;5004433;28;20460;-88
2021/01/08 03:11:10;;;;;;;18.00;10.23;;;1.80;99.90;;;;;;5004942;28;20219;-87
2021/01/08 03:13:40;;;;;;;14.63;8.63;;;1.90;99.90;;;;;;5005598;28;20880;-85
2021/01/08 03:16:07;;;;;;;15.80;9.30;;;2.00;99.90;;;;;;4987796;28;20445;-84
2021/01/08 03:18:32;;;;;;;21.80;10.83;;;1.90;99.90;;;;;;5021505;28;20957;-88
2021/01/08 03:20:58;;;;;;;22.97;11.33;;;2.00;99.90;;;;;;5023158;28;20435;-90
2021/01/08 03:23:24;;;;;;;15.93;9.53;;;2.00;99.90;;;;;;5022534;28;20232;-86
2021/01/08 03:25:49;;;;;;;12.77;9.00;;;2.10;99.90;;;;;;5021958;28;20208;-88
2021/01/08 03:28:16;;;;;;;20.53;11.60;;;2.10;99.90;;;;;;5020489;28;20189;-88
2021/01/08 03:30:42;;;;;;;17.60;8.93;;;2.10;99.90;;;;;;5022148;28;20276;-86
2021/01/08 03:33:08;;;;;;;18.20;10.63;;;2.10;99.90;;;;;;5022700;28;20469;-87
2021/01/08 03:35:33;;;;;;;22.87;10.17;;;2.20;99.90;;;;;;5024414;28;20189;-89
2021/01/08 03:37:59;;;;;;;15.93;10.03;;;2.20;99.90;;;;;;5034160;28;20212;-90
2021/01/08 03:40:24;;;;;;;14.47;8.60;;;2.10;99.90;;;;;;5050762;28;20191;-89
2021/01/08 03:42:53;;;;;;;17.70;10.07;;;2.20;99.90;;;;;;5042593;28;20216;-87
2021/01/08 03:45:18;;;;;;;18.60;10.90;;;2.20;99.90;;;;;;5034423;28;20245;-88
2021/01/08 03:47:44;;;;;;;19.17;10.07;;;2.20;99.90;;;;;;5027373;28;20439;-86
2021/01/08 03:50:10;;;;;;;17.27;9.83;;;2.20;99.90;;;;;;5028789;28;20184;-88
2021/01/08 03:52:36;;;;;;;15.83;8.83;;;2.20;99.90;;;;;;4992794;28;20208;-86
2021/01/08 03:55:02;;;;;;;15.13;8.73;;;2.20;99.90;;;;;;5011583;28;20501;-86
2021/01/08 03:57:27;;;;;;;23.10;11.60;;;2.20;99.90;;;;;;5027619;28;20191;-89
2021/01/08 03:59:53;;;;;;;16.70;10.07;;;2.20;99.90;;;;;;5026052;28;20847;-89
2021/01/08 04:02:19;;;;;;;16.40;9.53;;;2.20;99.90;;;;;;5010823;28;20719;-86
2021/01/08 04:04:44;;;;;;;19.40;10.10;;;2.20;99.90;;;;;;5027671;28;20268;-89
2021/01/08 04:07:10;;;;;;;13.60;8.37;;;2.20;99.90;;;;;;5027909;28;20257;-90
2021/01/08 04:09:35;;;;;;;16.93;8.97;;;2.20;99.90;;;;;;5027435;28;20227;-89
2021/01/08 04:12:04;;;;;;;17.10;9.27;;;2.20;99.90;;;;;;5012179;28;20266;-89
2021/01/08 04:14:30;;;;;;;11.47;8.60;;;2.20;99.90;;;;;;5010450;28;20709;-90
2021/01/08 04:16:56;;;;;;;17.57;9.83;;;2.20;99.90;;;;;;5024088;28;20562;-88
2021/01/08 04:19:21;;;;;;;12.47;7.93;;;2.20;99.90;;;;;;5027862;28;20612;-86
2021/01/08 04:21:49;;;;;;;11.47;6.40;;;2.20;99.90;;;;;;5026439;28;20246;-88
2021/01/08 04:24:16;;;;;;;16.13;8.57;;;2.10;99.90;;;;;;5025769;28;20236;-89
2021/01/08 04:26:41;;;;;;;14.47;8.43;;;2.10;99.90;;;;;;5016566;28;20868;-87
2021/01/08 04:29:07;;;;;;;12.80;7.77;;;2.20;99.90;;;;;;5008547;28;20483;-87
2021/01/08 04:31:33;;;;;;;12.50;7.87;;;2.10;99.90;;;;;;5028439;28;20274;-84
2021/01/08 04:33:58;;;;;;;15.17;8.53;;;2.10;99.90;;;;;;5024568;28;20221;-87
2021/01/08 04:36:24;;;;;;;11.80;8.10;;;2.10;99.90;;;;;;5023574;28;20203;-87
2021/01/08 04:38:50;;;;;;;14.23;9.20;;;2.10;99.90;;;;;;4996011;28;20180;-87
2021/01/08 04:41:16;;;;;;;10.97;7.40;;;2.10;99.90;;;;;;5010463;28;20426;-88
2021/01/08 04:43:42;;;;;;;15.67;8.73;;;2.10;99.90;;;;;;5010633;28;20215;-88
2021/01/08 04:46:22;;;;;;;13.33;8.00;;;2.10;99.90;;;;;;5026688;28;20465;-87
2021/01/08 04:48:54;;;;;;;15.70;8.33;;;2.10;99.90;;;;;;5011366;28;20468;-85
2021/01/08 04:51:22;;;;;;;17.53;8.33;;;2.10;99.90;;;;;;5025218;28;20436;-87
2021/01/08 04:53:48;;;;;;;15.80;9.93;;;2.10;99.90;;;;;;5027168;28;20544;-86
2021/01/08 04:56:17;;;;;;;14.00;7.97;;;2.00;99.90;;;;;;5010110;28;20434;-85
2021/01/08 04:58:46;;;;;;;14.47;6.90;;;2.10;99.90;;;;;;5026689;28;20504;-86
2021/01/08 05:01:12;;;;;;;14.47;8.50;;;2.00;99.90;;;;;;5008641;28;20798;-86
2021/01/08 05:03:38;;;;;;;16.33;9.87;;;2.00;99.90;;;;;;5028297;28;20495;-87
2021/01/08 05:06:04;;;;;;;15.07;9.40;;;2.00;99.90;;;;;;5026081;28;20226;-89
2021/01/08 05:08:30;;;;;;;20.20;10.40;;;2.00;99.90;;;;;;5010849;28;20442;-86
2021/01/08 05:10:59;;;;;;;12.97;8.40;;;2.00;99.90;;;;;;5024178;28;21790;-85
2021/01/08 05:13:37;;;;;;;12.80;8.40;;;2.00;99.90;;;;;;5026739;28;20273;-86
2021/01/08 05:16:02;;;;;;;14.50;8.37;;;2.00;99.90;;;;;;4995122;28;20438;-86
2021/01/08 05:18:30;;;;;;;17.87;9.93;;;1.90;99.90;;;;;;5027159;28;20431;-85
2021/01/08 05:20:56;;;;;;;13.53;8.20;;;2.00;99.90;;;;;;5024133;28;20253;-88
2021/01/08 05:23:22;;;;;;;16.47;9.40;;;1.90;99.90;;;;;;5024733;28;21011;-84
2021/01/08 05:25:48;;;;;;;13.87;8.80;;;1.90;99.90;;;;;;5026957;28;20262;-86
2021/01/08 05:28:17;;;;;;;16.70;9.00;;;1.90;99.90;;;;;;5025352;28;20451;-88
2021/01/08 05:30:43;;;;;;;15.37;9.10;;;1.90;99.90;;;;;;5025341;28;20457;-87
2021/01/08 05:33:13;;;;;;;16.20;8.47;;;1.80;99.90;;;;;;4994482;28;20505;-84
2021/01/08 05:35:40;;;;;;;18.37;9.80;;;1.90;99.90;;;;;;5024456;28;20446;-86
2021/01/08 05:38:07;;;;;;;17.00;10.10;;;1.90;99.90;;;;;;5007212;28;20459;-86
2021/01/08 05:40:33;;;;;;;14.20;7.23;;;1.90;99.90;;;;;;5008750;28;20453;-86
2021/01/08 05:43:00;;;;;;;17.77;9.53;;;1.90;99.90;;;;;;5024839;28;20994;-86
2021/01/08 05:45:27;;;;;;;18.70;10.03;;;1.90;99.90;;;;;;5007752;28;21851;-86
2021/01/08 05:47:56;;;;;;;19.33;10.83;;;1.90;99.90;;;;;;5027712;28;20433;-85
2021/01/08 05:50:23;;;;;;;14.93;9.00;;;1.90;99.90;;;;;;5026803;28;20431;-84
2021/01/08 05:53:10;;;;;;;13.90;7.10;;;1.90;99.90;;;;;;5024608;28;20959;-87
2021/01/08 05:55:41;;;;;;;16.40;9.90;;;2.00;99.90;;;;;;5009286;28;20939;-86
2021/01/08 05:58:19;;;;;;;16.40;9.47;;;1.90;99.90;;;;;;5026063;28;20432;-88
2021/01/08 06:01:02;;;;;;;12.90;7.60;;;1.90;99.90;;;;;;5026715;28;20453;-86
2021/01/08 06:03:28;;;;;;;17.60;9.20;;;1.90;99.90;;;;;;5021776;28;20520;-86
2021/01/08 06:06:03;;;;;;;17.27;9.87;;;1.90;99.90;;;;;;5023456;28;20527;-86
2021/01/08 06:08:32;;;;;;;19.07;10.97;;;1.90;99.90;;;;;;5009122;28;20430;-87
2021/01/08 06:10:59;;;;;;;21.47;11.10;;;1.90;99.90;;;;;;5025602;28;20446;-88
2021/01/08 06:13:29;;;;;;;20.77;10.27;;;1.90;99.90;;;;;;5005894;28;20816;-84
2021/01/08 06:15:56;;;;;;;18.03;9.57;;;1.90;99.90;;;;;;5007669;28;20436;-83
2021/01/08 06:18:26;;;;;;;20.33;9.73;;;1.90;99.90;;;;;;5005196;28;20461;-85
2021/01/08 06:20:54;;;;;;;24.30;11.53;;;1.80;99.90;;;;;;5025236;28;20837;-89
2021/01/08 06:23:43;;;;;;;17.80;10.03;;;1.90;99.90;;;;;;5006929;28;20637;-86
2021/01/08 06:26:14;;;;;;;15.00;8.50;;;1.80;99.90;;;;;;5025744;28;20561;-88
2021/01/08 06:28:48;;;;;;;15.13;9.40;;;1.80;99.90;;;;;;5023499;28;20426;-87
2021/01/08 06:31:16;;;;;;;16.83;9.77;;;1.90;99.90;;;;;;4990668;28;20461;-86
2021/01/08 06:33:57;;;;;;;16.47;9.53;;;1.90;99.90;;;;;;5023089;28;20478;-86
2021/01/08 06:36:25;;;;;;;17.47;10.50;;;1.90;99.90;;;;;;5021325;28;20442;-86
2021/01/08 06:38:53;;;;;;;19.00;9.77;;;1.90;99.90;;;;;;5023923;28;20418;-86
2021/01/08 06:41:19;;;;;;;13.43;8.70;;;1.90;99.90;;;;;;5023822;28;20428;-85
2021/01/08 06:43:49;;;;;;;17.40;9.20;;;1.90;99.90;;;;;;5004608;28;20453;-83
2021/01/08 06:46:44;;;;;;;17.40;9.80;;;1.90;99.90;;;;;;5019283;28;20469;-86
2021/01/08 06:49:11;;;;;;;14.93;9.23;;;1.90;99.90;;;;;;5007411;28;20435;-86
2021/01/08 06:51:43;;;;;;;16.10;9.97;;;1.80;99.90;;;;;;5006132;28;20528;-90
2021/01/08 06:54:10;;;;;;;18.33;9.17;;;1.80;99.90;;;;;;5022422;28;20472;-84
2021/01/08 06:56:41;;;;;;;24.87;10.30;;;1.80;99.90;;;;;;5022871;28;20453;-91
2021/01/08 06:59:07;;;;;;;15.17;8.97;;;1.80;99.90;;;;;;5021446;28;20492;-86
2021/01/08 07:02:00;;;;;;;19.63;11.27;;;1.80;99.90;;;;;;5021239;28;20459;-88
2021/01/08 07:04:29;;;;;;;18.77;8.97;;;1.90;99.90;;;;;;5023223;28;20489;-89
2021/01/08 07:06:58;;;;;;;22.83;13.10;;;1.90;99.90;;;;;;4992054;28;20583;-83
2021/01/08 07:09:36;;;;;;;22.03;10.70;;;1.90;99.90;;;;;;5028500;28;20738;-86
2021/01/08 07:12:07;;;;;;;18.93;10.57;;;1.90;99.90;;;;;;5010676;28;20430;-85
2021/01/08 07:14:35;;;;;;;15.40;9.77;;;1.90;99.90;;;;;;5011783;28;20467;-85
2021/01/08 07:17:04;;;;;;;21.20;10.90;;;1.90;99.90;;;;;;5024595;28;20440;-86
2021/01/08 07:19:33;;;;;;;26.13;10.97;;;2.00;99.90;;;;;;5028769;28;20788;-86
2021/01/08 07:22:03;;;;;;;18.07;10.27;;;2.00;99.90;;;;;;5026522;28;20518;-85
2021/01/08 07:24:36;;;;;;;18.47;10.97;;;2.00;99.90;;;;;;5008403;28;20498;-85
2021/01/08 07:27:26;;;;;;;15.23;9.00;;;2.10;99.90;;;;;;5027232;28;20430;-87
2021/01/08 07:29:53;;;;;;;19.50;11.90;;;2.00;99.90;;;;;;5025328;28;20419;-86
2021/01/08 07:32:40;;;;;;;19.33;10.40;;;2.00;99.90;;;;;;5021026;28;20448;-87
2021/01/08 07:35:25;;;;;;;20.07;9.83;;;2.00;99.90;;;;;;5023476;28;20523;-87
2021/01/08 07:38:01;;;;;;;15.97;9.07;;;2.10;99.90;;;;;;5008202;28;20573;-88
2021/01/08 07:40:31;;;;;;;17.30;9.10;;;2.10;99.90;;;;;;5024298;28;20422;-86
2021/01/08 07:43:01;;;;;;;15.50;9.83;;;2.10;99.90;;;;;;5007329;28;20458;-86
2021/01/08 07:45:55;;;;;;;19.70;9.87;;;2.10;99.90;;;;;;5027072;28;20424;-86
2021/01/08 07:48:35;;;;;;;13.17;8.10;;;2.10;99.90;;;;;;5023961;28;20450;-86
2021/01/08 07:51:08;;;;;;;17.80;9.57;;;2.10;99.90;;;;;;4992443;28;20521;-87
2021/01/08 07:53:43;;;;;;;21.23;11.27;;;2.10;99.90;;;;;;5024672;28;20562;-88
2021/01/08 07:56:10;;;;;;;23.30;10.17;;;2.10;99.90;;;;;;5022893;28;20426;-87
2021/01/08 07:58:36;;;;;;;13.00;5.67;;;2.10;99.90;;;;;;5008005;28;21124;-86
2021/01/08 08:01:07;;;;;;;16.33;8.90;;;2.20;99.90;;;;;;5021659;28;20470;-87
2021/01/08 08:03:32;;;;;;;13.23;8.57;;;2.20;99.90;;;;;;5025961;28;20454;-86
2021/01/08 08:06:03;;;;;;;15.60;9.60;;;2.20;99.90;;;;;;5008033;28;20516;-86
2021/01/08 08:08:29;;;;;;;19.97;9.47;;;2.20;99.90;;;;;;5008757;28;20546;-88
2021/01/08 08:11:26;;;;;;;19.87;9.20;;;2.20;99.90;;;;;;5024774;28;20415;-87
2021/01/08 08:13:52;;;;;;;15.23;9.07;;;2.20;99.90;;;;;;5024347;28;20470;-86
2021/01/08 08:16:34;;;;;;;16.97;8.90;;;2.20;99.90;;;;;;5020877;28;20449;-86
2021/01/08 08:19:00;;;;;;;16.50;8.10;;;2.20;99.90;;;;;;5019584;28;20934;-83
2021/01/08 08:21:47;;;;;;;16.50;9.30;;;2.10;99.90;;;;;;5028057;28;20509;-86
2021/01/08 08:24:15;;;;;;;14.53;9.13;;;2.10;99.90;;;;;;5027060;28;20447;-87
2021/01/08 08:26:44;;;;;;;16.57;8.60;;;2.20;99.90;;;;;;5010179;28;20463;-88
2021/01/08 08:29:16;;;;;;;12.00;9.10;;;2.10;99.90;;;;;;5026413;28;20427;-89
2021/01/08 08:31:46;;;;;;;12.23;7.70;;;2.10;99.90;;;;;;5018918;28;20482;-86
2021/01/08 08:34:25;;;;;;;14.20;7.60;;;2.10;99.90;;;;;;5026955;28;20469;-87
2021/01/08 08:36:51;;;;;;;18.43;9.30;;;2.10;99.90;;;;;;5021948;28;20430;-89
2021/01/08 08:39:20;;;;;;;17.67;8.50;;;2.10;99.90;;;;;;5006610;28;20415;-91
2021/01/08 08:41:49;;;;;;;14.27;8.50;;;2.20;99.90;;;;;;5007310;28;20177;-85
2021/01/08 08:44:18;;;;;;;16.07;7.83;;;2.20;99.90;;;;;;5027263;28;20513;-87
2021/01/08 08:46:49;;;;;;;18.70;8.57;;;2.20;99.90;;;;;;5007355;28;20477;-85
2021/01/08 08:49:32;;;;;;;19.27;10.03;;;2.30;99.90;;;;;;5023264;28;20439;-88
2021/01/08 08:51:59;;;;;;;17.40;9.70;;;2.30;99.90;;;;;;5027410;28;20969;-85
2021/01/08 08:54:25;;;;;;;14.73;8.33;;;2.30;99.90;;;;;;5025938;28;20812;-85
2021/01/08 08:57:01;;;;;;;14.43;10.20;;;2.40;99.90;;;;;;5010431;28;20804;-86
2021/01/08 08:59:44;;;;;;;16.67;9.43;;;2.40;99.90;;;;;;5026147;28;20525;-81
2021/01/08 09:02:22;;;;;;;13.90;9.30;;;2.40;99.90;;;;;;4991970;28;21169;-86
2021/01/08 09:05:02;;;;;;;15.33;8.03;;;2.30;99.90;;;;;;5024708;28;20553;-87
2021/01/08 09:07:37;;;;;;;15.47;7.93;;;2.30;99.90;;;;;;5008246;28;20439;-85
2021/01/08 09:10:16;;;;;;;14.70;8.23;;;2.40;99.90;;;;;;5025588;28;20453;-89
2021/01/08 09:12:58;;;;;;;9.00;5.83;;;2.30;99.90;;;;;;5024789;28;20547;-86
2021/01/08 09:15:44;;;;;;;15.10;7.93;;;2.30;99.90;;;;;;5022121;28;20475;-87
2021/01/08 09:18:47;;;;;;;13.10;7.83;;;2.30;99.90;;;;;;5007001;28;20477;-87
2021/01/08 09:21:22;;;;;;;8.53;6.00;;;2.30;99.90;;;;;;4980452;28;20439;-87
2021/01/08 09:23:51;;;;;;;15.90;8.93;;;2.20;99.90;;;;;;5024553;28;21395;-88
2021/01/08 09:26:19;;;;;;;12.70;7.20;;;2.30;99.90;;;;;;5008220;28;20459;-87
2021/01/08 09:28:51;;;;;;;13.17;8.13;;;2.30;99.90;;;;;;5024086;28;20434;-88
2021/01/08 09:31:36;;;;;;;12.17;8.47;;;2.40;99.90;;;;;;4991068;28;20427;-88
2021/01/08 09:34:02;;;;;;;15.43;8.03;;;2.40;99.90;;;;;;5020135;28;20883;-87
2021/01/08 09:36:29;;;;;;;12.33;6.83;;;2.40;99.90;;;;;;5008430;28;20467;-88
2021/01/08 09:39:03;;;;;;;9.87;7.13;;;2.40;99.90;;;;;;5003193;28;20232;-86
2021/01/08 09:41:37;;;;;;;15.20;8.17;;;2.40;99.90;;;;;;5024484;28;20427;-87
2021/01/08 09:44:08;;;;;;;12.80;8.60;;;2.50;99.90;;;;;;5004891;28;20530;-88
2021/01/08 09:46:53;;;;;;;15.30;8.93;;;2.50;99.90;;;;;;5019540;28;20465;-88
2021/01/08 09:49:19;;;;;;;16.37;8.73;;;2.50;99.90;;;;;;4999753;28;20457;-86
2021/01/08 09:51:47;;;;;;;15.53;9.00;;;2.60;99.90;;;;;;5020641;28;20501;-85
2021/01/08 09:54:13;;;;;;;14.37;7.30;;;2.50;99.90;;;;;;4986934;28;20736;-86
2021/01/08 09:56:39;;;;;;;15.23;8.40;;;2.60;99.90;;;;;;5020317;28;20444;-85
2021/01/08 09:59:16;;;;;;;16.33;9.27;;;2.50;99.90;;;;;;5022340;28;20892;-86
2021/01/08 10:01:54;;;;;;;17.53;7.43;;;2.30;99.90;;;;;;5024236;28;20659;-83
2021/01/08 10:04:28;;;;;;;13.73;6.87;;;2.20;99.90;;;;;;5018546;28;20638;-86
2021/01/08 10:07:12;;;;;;;11.00;7.13;;;2.20;99.90;;;;;;5010081;28;20442;-87
2021/01/08 10:09:54;;;;;;;11.37;7.93;;;2.00;99.90;;;;;;5006536;28;20443;-85
2021/01/08 10:12:26;;;;;;;13.47;6.50;;;1.80;99.90;;;;;;5021992;28;20842;-83
2021/01/08 10:14:58;;;;;;;13.43;7.73;;;1.70;99.90;;;;;;5005163;28;20687;-86
2021/01/08 10:17:24;;;;;;;12.53;8.07;;;1.70;99.90;;;;;;5003411;28;20429;-88
2021/01/08 10:19:52;;;;;;;11.13;7.03;;;1.60;99.90;;;;;;4998968;28;20514;-90
2021/01/08 10:22:21;;;;;;;16.60;9.63;;;1.60;99.90;;;;;;5047609;28;20219;-87
2021/01/08 10:24:46;;;;;;;12.60;7.50;;;1.60;99.90;;;;;;5043183;28;20485;-87
2021/01/08 10:27:13;;;;;;;11.13;6.97;;;1.60;99.90;;;;;;5011093;28;20451;-88
2021/01/08 10:29:39;;;;;;;12.10;7.17;;;1.60;99.90;;;;;;5044197;28;20177;-88
2021/01/08 10:32:10;;;;;;;12.87;8.67;;;1.60;99.90;;;;;;5042024;28;20446;-90
2021/01/08 10:34:43;;;;;;;12.47;7.07;;;1.70;99.90;;;;;;5039803;28;20479;-89
2021/01/08 10:37:19;;;;;;;14.93;9.23;;;1.70;99.90;;;;;;5045025;28;20447;-89
2021/01/08 10:39:48;;;;;;;16.30;8.00;;;1.70;99.90;;;;;;5025370;28;20446;-88
2021/01/08 10:42:17;;;;;;;14.80;9.37;;;1.60;99.90;;;;;;5032019;28;20451;-86
2021/01/08 10:44:43;;;;;;;14.43;8.33;;;1.60;99.90;;;;;;5022108;28;20951;-88
2021/01/08 10:47:09;;;;;;;15.60;7.80;;;1.60;99.90;;;;;;5025572;28;20808;-87
2021/01/08 10:49:38;;;;;;;14.13;8.30;;;1.60;99.90;;;;;;5021797;28;20443;-88
2021/01/08 10:52:09;;;;;;;18.53;9.53;;;1.50;99.90;;;;;;5020960;28;20808;-87
2021/01/08 10:54:35;;;;;;;14.60;7.50;;;1.50;99.90;;;;;;4987075;28;20474;-87
2021/01/08 10:57:01;;;;;;;18.00;8.70;;;1.50;99.90;;;;;;5020602;28;20441;-87
2021/01/08 10:59:26;;;;;;;13.50;9.20;;;1.40;99.90;;;;;;5006829;28;20194;-87
2021/01/08 11:01:52;;;;;;;15.93;8.73;;;1.50;99.90;;;;;;5006447;28;20484;-87
2021/01/08 11:04:18;;;;;;;17.93;8.50;;;1.50;99.90;;;;;;5023658;28;20266;-88
2021/01/08 11:06:43;;;;;;;16.60;9.03;;;1.40;99.90;;;;;;5005754;28;20220;-87
2021/01/08 11:09:09;;;;;;;17.33;8.63;;;1.40;99.90;;;;;;5005913;28;20280;-85
2021/01/08 11:11:35;;;;;;;17.70;10.30;;;1.40;99.90;;;;;;5002240;28;20279;-88
2021/01/08 11:14:01;;;;;;;17.07;9.87;;;1.50;99.90;;;;;;5027120;28;20716;-88
2021/01/08 11:16:28;;;;;;;14.87;8.60;;;1.50;99.90;;;;;;5004893;28;20207;-88
2021/01/08 11:18:54;;;;;;;19.63;9.90;;;1.50;99.90;;;;;;5013466;28;20981;-88
2021/01/08 11:21:21;;;;;;;20.43;8.80;;;1.50;99.90;;;;;;4989929;28;20450;-87
2021/01/08 11:23:53;;;;;;;15.03;8.80;;;1.50;99.90;;;;;;5006702;28;20486;-89
2021/01/08 11:26:29;;;;;;;15.70;7.80;;;1.50;99.90;;;;;;5009311;28;20473;-87
2021/01/08 11:28:55;;;;;;;14.47;8.80;;;1.60;99.90;;;;;;5004556;28;20453;-88
2021/01/08 11:31:21;;;;;;;21.50;10.07;;;1.70;99.90;;;;;;5007601;28;20453;-90
2021/01/08 11:33:47;;;;;;;16.87;8.37;;;1.80;99.90;;;;;;5023820;28;20521;-88
2021/01/08 11:36:17;;;;;;;17.67;8.30;;;1.80;99.90;;;;;;5004699;28;20192;-88
2021/01/08 11:38:42;;;;;;;16.20;7.83;;;1.80;99.90;;;;;;5007942;28;20437;-88
2021/01/08 11:41:09;;;;;;;17.70;8.90;;;1.80;99.90;;;;;;5023970;28;20426;-88
2021/01/08 11:43:35;;;;;;;18.67;9.10;;;1.90;99.90;;;;;;5025080;28;20410;-86
2021/01/08 11:46:01;;;;;;;18.57;10.13;;;2.00;99.90;;;;;;5004323;28;20493;-89
2021/01/08 11:48:27;;;;;;;19.70;9.53;;;2.00;99.90;;;;;;5024103;28;20167;-87
2021/01/08 11:50:55;;;;;;;16.27;8.17;;;2.00;99.90;;;;;;5023245;28;20205;-89
2021/01/08 11:53:21;;;;;;;16.60;9.60;;;2.10;99.90;;;;;;5022451;28;20210;-87
2021/01/08 11:55:47;;;;;;;12.83;7.97;;;2.00;99.90;;;;;;5006523;28;20474;-88
2021/01/08 11:58:12;;;;;;;16.60;8.90;;;2.00;99.90;;;;;;5025812;28;20178;-88
2021/01/08 12:00:38;;;;;;;21.67;9.80;;;2.00;99.90;;;;;;5011414;28;20211;-90
2021/01/08 12:03:04;;;;;;;20.73;7.83;;;2.00;99.90;;;;;;5007971;28;20206;-87
2021/01/08 12:05:30;;;;;;;16.37;8.13;;;2.00;99.90;;;;;;5008353;28;20230;-87
2021/01/08 12:08:15;;;;;;;17.97;8.53;;;2.10;99.90;;;;;;4995251;28;20430;-89
2021/01/08 12:10:47;;;;;;;18.20;9.90;;;2.10;99.90;;;;;;5027018;28;20223;-89
2021/01/08 12:13:20;;;;;;;14.20;8.40;;;2.10;99.90;;;;;;5007949;28;20442;-89
2021/01/08 12:15:49;;;;;;;18.00;8.80;;;2.10;99.90;;;;;;4995456;28;20533;-87
2021/01/08 12:18:24;;;;;;;16.30;9.67;;;2.10;99.90;;;;;;5010646;28;20446;-90
2021/01/08 12:20:53;;;;;;;15.30;9.00;;;2.20;99.90;;;;;;5010689;28;21184;-88
2021/01/08 12:23:18;;;;;;;12.70;8.07;;;2.30;99.90;;;;;;4999195;28;20537;-86
2021/01/08 12:29:33;;;;;;;18.97;9.00;;;2.40;99.90;;;;;;5029894;28;20265;-92
2021/01/08 12:37:20;;;;;;;17.80;7.70;;;2.60;99.90;;;;;;5224659;22;20490;-92
2021/01/08 12:40:00;;;;;;;17.40;9.43;;;2.60;99.90;;;;;;4995423;28;20458;-90
2021/01/08 12:42:32;;;;;;;16.00;9.07;;;2.70;99.90;;;;;;5008956;28;20475;-88
2021/01/08 12:49:41;;;;;;;;;;;;;;;;;;;;;
2021/01/08 13:00:12;;;;;;;14.17;7.57;;;2.40;99.90;;;;;;4997953;22;20504;-89
2021/01/08 13:10:36;;;;;;;13.70;7.67;;;2.40;99.90;;;;;;1370687;26;20595;-89
2021/01/08 13:13:04;;;;;;;16.77;10.20;;;2.50;99.90;;;;;;4948941;28;20459;-89
2021/01/08 13:15:33;;;;;;;16.20;9.23;;;2.60;99.90;;;;;;4949064;28;20491;-85
2021/01/08 13:18:29;;;;;;;19.90;9.50;;;2.60;99.90;;;;;;4932941;28;20477;-89
2021/01/08 13:21:01;;;;;;;15.07;8.77;;;2.60;99.90;;;;;;4952710;28;20539;-91
2021/01/08 13:23:30;;;;;;;17.57;8.57;;;2.70;99.90;;;;;;4962161;28;20450;-87
2021/01/08 13:25:59;;;;;;;13.30;8.23;;;2.70;99.90;;;;;;4950252;28;20447;-87
2021/01/08 13:28:27;;;;;;;18.37;8.90;;;2.70;99.90;;;;;;4933811;28;20454;-88